sensor_id;sensor_type;location;lat;lon;timestamp;temperature;humidity
16578;DHT22;8401;52.528;13.340;2022-11-15T00:00:05;7.30;99.90
16578;DHT22;8401;52.528;13.340;2022-11-15T00:02:31;7.30;99.90
16578;DHT22;8401;52.528;13.340;2022-11-15T00:04:57;7.40;99.90
16578;DHT22;8401;52.528;13.340;2022-11-15T00:07:22;7.40;99.90
16578;DHT22;8401;52.528;13.340;2022-11-15T00:09:48;7.40;99.90
16578;DHT22;8401;52.528;13.340;2022-11-15T00:12:13;7.40;99.90
16578;DHT22;8401;52.528;13.340;2022-11-15T00:14:39;7.40;99.90
16578;DHT22;8401;52.528;13.340;2022-11-15T00:17:05;7.30;99.90
16578;DHT22;8401;52.528;13.340;2022-11-15T00:19:30;7.40;99.90
16578;DHT22;8401;52.528;13.340;2022-11-15T00:21:56;7.40;99.90
16578;DHT22;8401;52.528;13.340;2022-11-15T00:24:22;7.40;99.90
16578;DHT22;8401;52.528;13.340;2022-11-15T00:26:47;7.40;99.90
16578;DHT22;8401;52.528;13.340;2022-11-15T00:29:13;7.20;99.90
16578;DHT22;8401;52.528;13.340;2022-11-15T00:31:39;7.30;99.90
16578;DHT22;8401;52.528;13.340;2022-11-15T00:34:04;7.40;99.90
16578;DHT22;8401;52.528;13.340;2022-11-15T00:36:33;7.40;99.90
16578;DHT22;8401;52.528;13.340;2022-11-15T00:38:58;7.40;99.90
16578;DHT22;8401;52.528;13.340;2022-11-15T00:41:24;7.40;99.90
16578;DHT22;8401;52.528;13.340;2022-11-15T00:43:49;7.30;99.90
16578;DHT22;8401;52.528;13.340;2022-11-15T00:46:15;7.30;99.90
16578;DHT22;8401;52.528;13.340;2022-11-15T00:48:41;7.20;99.90
16578;DHT22;8401;52.528;13.340;2022-11-15T00:51:06;7.30;99.90
16578;DHT22;8401;52.528;13.340;2022-11-15T00:53:32;7.30;99.90
16578;DHT22;8401;52.528;13.340;2022-11-15T00:55:58;7.30;99.90
16578;DHT22;8401;52.528;13.340;2022-11-15T00:58:23;7.30;99.90
16578;DHT22;8401;52.528;13.340;2022-11-15T01:00:49;7.30;99.90
16578;DHT22;8401;52.528;13.340;2022-11-15T01:03:15;7.20;99.90
16578;DHT22;8401;52.528;13.340;2022-11-15T01:05:43;7.20;99.90
16578;DHT22;8401;52.528;13.340;2022-11-15T01:08:16;7.30;99.90
16578;DHT22;8401;52.528;13.340;2022-11-15T01:10:42;7.20;99.90
16578;DHT22;8401;52.528;13.340;2022-11-15T01:13:08;7.20;99.90
16578;DHT22;8401;52.528;13.340;2022-11-15T01:15:34;7.20;99.90
16578;DHT22;8401;52.528;13.340;2022-11-15T01:17:59;7.20;99.90
16578;DHT22;8401;52.528;13.340;2022-11-15T01:20:25;7.10;99.90
16578;DHT22;8401;52.528;13.340;2022-11-15T01:23:12;7.10;99.90
16578;DHT22;8401;52.528;13.340;2022-11-15T01:25:37;7.10;99.90
16578;DHT22;8401;52.528;13.340;2022-11-15T01:28:03;7.00;99.90
16578;DHT22;8401;52.528;13.340;2022-11-15T01:30:29;7.00;99.90
16578;DHT22;8401;52.528;13.340;2022-11-15T01:32:54;7.00;99.90
16578;DHT22;8401;52.528;13.340;2022-11-15T01:35:20;7.00;99.90
16578;DHT22;8401;52.528;13.340;2022-11-15T01:37:46;7.00;99.90
16578;DHT22;8401;52.528;13.340;2022-11-15T01:40:11;7.00;99.90
16578;DHT22;8401;52.528;13.340;2022-11-15T01:42:37;7.00;99.90
16578;DHT22;8401;52.528;13.340;2022-11-15T01:45:05;7.00;99.90
16578;DHT22;8401;52.528;13.340;2022-11-15T01:47:37;7.00;99.90
16578;DHT22;8401;52.528;13.340;2022-11-15T01:50:08;7.00;99.90
16578;DHT22;8401;52.528;13.340;2022-11-15T01:52:36;7.00;99.90
16578;DHT22;8401;52.528;13.340;2022-11-15T01:55:20;6.90;99.90
16578;DHT22;8401;52.528;13.340;2022-11-15T01:57:49;6.90;99.90
16578;DHT22;8401;52.528;13.340;2022-11-15T02:00:16;6.90;99.90
16578;DHT22;8401;52.528;13.340;2022-11-15T02:02:42;6.90;99.90
16578;DHT22;8401;52.528;13.340;2022-11-15T02:05:08;6.90;99.90
16578;DHT22;8401;52.528;13.340;2022-11-15T02:07:35;6.90;99.90
16578;DHT22;8401;52.528;13.340;2022-11-15T02:10:12;6.90;99.90
16578;DHT22;8401;52.528;13.340;2022-11-15T02:12:39;6.90;99.90
16578;DHT22;8401;52.528;13.340;2022-11-15T02:15:06;6.90;99.90
16578;DHT22;8401;52.528;13.340;2022-11-15T02:29:09;6.80;99.90
16578;DHT22;8401;52.528;13.340;2022-11-15T02:34:32;6.80;99.90
16578;DHT22;8401;52.528;13.340;2022-11-15T02:37:16;6.80;99.90
16578;DHT22;8401;52.528;13.340;2022-11-15T02:40:23;6.80;99.90
16578;DHT22;8401;52.528;13.340;2022-11-15T02:42:56;6.80;99.90
16578;DHT22;8401;52.528;13.340;2022-11-15T02:45:46;6.80;99.90
16578;DHT22;8401;52.528;13.340;2022-11-15T02:48:15;6.80;99.90
16578;DHT22;8401;52.528;13.340;2022-11-15T02:50:41;6.80;99.90
16578;DHT22;8401;52.528;13.340;2022-11-15T02:53:08;6.70;99.90
16578;DHT22;8401;52.528;13.340;2022-11-15T02:55:41;6.70;99.90
16578;DHT22;8401;52.528;13.340;2022-11-15T03:09:04;6.70;99.90
16578;DHT22;8401;52.528;13.340;2022-11-15T03:11:36;6.80;99.90
16578;DHT22;8401;52.528;13.340;2022-11-15T03:14:30;6.80;99.90
16578;DHT22;8401;52.528;13.340;2022-11-15T03:19:44;6.80;99.90
16578;DHT22;8401;52.528;13.340;2022-11-15T03:22:13;6.80;99.90
16578;DHT22;8401;52.528;13.340;2022-11-15T03:24:41;6.80;99.90
16578;DHT22;8401;52.528;13.340;2022-11-15T03:27:10;6.80;99.90
16578;DHT22;8401;52.528;13.340;2022-11-15T03:29:41;6.80;99.90
16578;DHT22;8401;52.528;13.340;2022-11-15T03:32:12;6.80;99.90
16578;DHT22;8401;52.528;13.340;2022-11-15T03:35:17;6.80;99.90
16578;DHT22;8401;52.528;13.340;2022-11-15T03:40:26;6.90;99.90
16578;DHT22;8401;52.528;13.340;2022-11-15T03:45:33;6.80;99.90
16578;DHT22;8401;52.528;13.340;2022-11-15T03:48:11;6.80;99.90
16578;DHT22;8401;52.528;13.340;2022-11-15T03:50:39;6.90;99.90
16578;DHT22;8401;52.528;13.340;2022-11-15T03:53:05;6.80;99.90
16578;DHT22;8401;52.528;13.340;2022-11-15T03:55:32;6.70;99.90
16578;DHT22;8401;52.528;13.340;2022-11-15T03:57:59;6.80;99.90
16578;DHT22;8401;52.528;13.340;2022-11-15T04:00:26;6.80;99.90
16578;DHT22;8401;52.528;13.340;2022-11-15T04:02:51;6.90;99.90
16578;DHT22;8401;52.528;13.340;2022-11-15T04:05:17;6.80;99.90
16578;DHT22;8401;52.528;13.340;2022-11-15T04:07:43;6.90;99.90
16578;DHT22;8401;52.528;13.340;2022-11-15T04:10:10;6.80;99.90
16578;DHT22;8401;52.528;13.340;2022-11-15T04:12:38;6.90;99.90
16578;DHT22;8401;52.528;13.340;2022-11-15T04:15:11;6.90;99.90
16578;DHT22;8401;52.528;13.340;2022-11-15T04:17:46;6.90;99.90
16578;DHT22;8401;52.528;13.340;2022-11-15T04:23:17;6.90;99.90
16578;DHT22;8401;52.528;13.340;2022-11-15T04:26:11;6.90;99.90
16578;DHT22;8401;52.528;13.340;2022-11-15T04:28:38;6.90;99.90
16578;DHT22;8401;52.528;13.340;2022-11-15T04:31:23;6.80;99.90
16578;DHT22;8401;52.528;13.340;2022-11-15T04:33:49;6.80;99.90
16578;DHT22;8401;52.528;13.340;2022-11-15T04:36:15;6.90;99.90
16578;DHT22;8401;52.528;13.340;2022-11-15T04:38:59;6.90;99.90
16578;DHT22;8401;52.528;13.340;2022-11-15T04:41:24;6.80;99.90
16578;DHT22;8401;52.528;13.340;2022-11-15T04:43:50;6.80;99.90
16578;DHT22;8401;52.528;13.340;2022-11-15T04:46:16;6.90;99.90
16578;DHT22;8401;52.528;13.340;2022-11-15T04:48:42;6.90;99.90
16578;DHT22;8401;52.528;13.340;2022-11-15T04:51:07;6.90;99.90
16578;DHT22;8401;52.528;13.340;2022-11-15T04:53:33;6.90;99.90
16578;DHT22;8401;52.528;13.340;2022-11-15T04:55:58;6.90;99.90
16578;DHT22;8401;52.528;13.340;2022-11-15T04:58:24;6.90;99.90
16578;DHT22;8401;52.528;13.340;2022-11-15T05:00:49;6.80;99.90
16578;DHT22;8401;52.528;13.340;2022-11-15T05:03:15;6.80;99.90
16578;DHT22;8401;52.528;13.340;2022-11-15T05:05:59;6.80;99.90
16578;DHT22;8401;52.528;13.340;2022-11-15T05:08:25;6.80;99.90
16578;DHT22;8401;52.528;13.340;2022-11-15T05:10:51;6.80;99.90
16578;DHT22;8401;52.528;13.340;2022-11-15T05:13:17;6.70;99.90
16578;DHT22;8401;52.528;13.340;2022-11-15T05:15:42;6.80;99.90
16578;DHT22;8401;52.528;13.340;2022-11-15T05:18:08;6.70;99.90
16578;DHT22;8401;52.528;13.340;2022-11-15T05:20:34;6.80;99.90
16578;DHT22;8401;52.528;13.340;2022-11-15T05:22:59;6.90;99.90
16578;DHT22;8401;52.528;13.340;2022-11-15T05:25:25;6.90;99.90
16578;DHT22;8401;52.528;13.340;2022-11-15T05:27:51;6.90;99.90
16578;DHT22;8401;52.528;13.340;2022-11-15T05:30:17;6.90;99.90
16578;DHT22;8401;52.528;13.340;2022-11-15T05:32:43;6.90;99.90
16578;DHT22;8401;52.528;13.340;2022-11-15T05:35:38;6.90;99.90
16578;DHT22;8401;52.528;13.340;2022-11-15T05:38:04;6.90;99.90
16578;DHT22;8401;52.528;13.340;2022-11-15T05:40:31;6.80;99.90
16578;DHT22;8401;52.528;13.340;2022-11-15T05:42:57;6.90;99.90
16578;DHT22;8401;52.528;13.340;2022-11-15T05:45:25;6.90;99.90
16578;DHT22;8401;52.528;13.340;2022-11-15T05:47:51;6.90;99.90
16578;DHT22;8401;52.528;13.340;2022-11-15T05:50:18;6.90;99.90
16578;DHT22;8401;52.528;13.340;2022-11-15T05:52:46;6.90;99.90
16578;DHT22;8401;52.528;13.340;2022-11-15T05:55:12;6.90;99.90
16578;DHT22;8401;52.528;13.340;2022-11-15T05:57:38;6.90;99.90
16578;DHT22;8401;52.528;13.340;2022-11-15T06:00:04;6.80;99.90
16578;DHT22;8401;52.528;13.340;2022-11-15T06:02:30;6.90;99.90
16578;DHT22;8401;52.528;13.340;2022-11-15T06:04:56;6.80;99.90
16578;DHT22;8401;52.528;13.340;2022-11-15T06:07:21;6.80;99.90
16578;DHT22;8401;52.528;13.340;2022-11-15T06:09:47;6.80;99.90
16578;DHT22;8401;52.528;13.340;2022-11-15T06:12:13;6.80;99.90
16578;DHT22;8401;52.528;13.340;2022-11-15T06:14:39;6.80;99.90
16578;DHT22;8401;52.528;13.340;2022-11-15T06:17:04;6.80;99.90
16578;DHT22;8401;52.528;13.340;2022-11-15T06:19:30;6.80;99.90
16578;DHT22;8401;52.528;13.340;2022-11-15T06:21:59;6.80;99.90
16578;DHT22;8401;52.528;13.340;2022-11-15T06:24:24;6.80;99.90
16578;DHT22;8401;52.528;13.340;2022-11-15T06:26:50;6.70;99.90
16578;DHT22;8401;52.528;13.340;2022-11-15T06:29:15;6.80;99.90
16578;DHT22;8401;52.528;13.340;2022-11-15T06:31:41;6.80;99.90
16578;DHT22;8401;52.528;13.340;2022-11-15T06:34:07;6.80;99.90
16578;DHT22;8401;52.528;13.340;2022-11-15T06:36:35;6.80;99.90
16578;DHT22;8401;52.528;13.340;2022-11-15T06:39:01;6.70;99.90
16578;DHT22;8401;52.528;13.340;2022-11-15T06:41:27;6.80;99.90
16578;DHT22;8401;52.528;13.340;2022-11-15T06:43:53;6.90;99.90
16578;DHT22;8401;52.528;13.340;2022-11-15T06:46:18;6.80;99.90
16578;DHT22;8401;52.528;13.340;2022-11-15T06:48:44;6.90;99.90
16578;DHT22;8401;52.528;13.340;2022-11-15T06:51:10;6.90;99.90
16578;DHT22;8401;52.528;13.340;2022-11-15T06:53:35;6.90;99.90
16578;DHT22;8401;52.528;13.340;2022-11-15T06:56:02;6.90;99.90
16578;DHT22;8401;52.528;13.340;2022-11-15T06:58:28;7.00;99.90
16578;DHT22;8401;52.528;13.340;2022-11-15T07:00:58;6.90;99.90
16578;DHT22;8401;52.528;13.340;2022-11-15T07:03:24;7.00;99.90
16578;DHT22;8401;52.528;13.340;2022-11-15T07:05:55;7.00;99.90
16578;DHT22;8401;52.528;13.340;2022-11-15T07:08:22;7.00;99.90
16578;DHT22;8401;52.528;13.340;2022-11-15T07:10:49;7.00;99.90
16578;DHT22;8401;52.528;13.340;2022-11-15T07:13:15;7.00;99.90
16578;DHT22;8401;52.528;13.340;2022-11-15T07:15:40;7.00;99.90
16578;DHT22;8401;52.528;13.340;2022-11-15T07:18:06;7.00;99.90
16578;DHT22;8401;52.528;13.340;2022-11-15T07:20:32;7.00;99.90
16578;DHT22;8401;52.528;13.340;2022-11-15T07:23:05;7.00;99.90
16578;DHT22;8401;52.528;13.340;2022-11-15T07:25:31;7.00;99.90
16578;DHT22;8401;52.528;13.340;2022-11-15T07:28:00;7.00;99.90
16578;DHT22;8401;52.528;13.340;2022-11-15T07:30:27;7.10;99.90
16578;DHT22;8401;52.528;13.340;2022-11-15T07:32:56;7.10;99.90
16578;DHT22;8401;52.528;13.340;2022-11-15T07:35:23;7.20;99.90
16578;DHT22;8401;52.528;13.340;2022-11-15T07:37:59;7.30;99.90
16578;DHT22;8401;52.528;13.340;2022-11-15T07:40:27;7.30;99.90
16578;DHT22;8401;52.528;13.340;2022-11-15T07:42:58;7.40;99.90
16578;DHT22;8401;52.528;13.340;2022-11-15T07:45:24;7.30;99.90
16578;DHT22;8401;52.528;13.340;2022-11-15T07:47:52;7.30;99.90
16578;DHT22;8401;52.528;13.340;2022-11-15T07:50:18;7.40;99.90
16578;DHT22;8401;52.528;13.340;2022-11-15T07:52:44;7.40;99.90
16578;DHT22;8401;52.528;13.340;2022-11-15T07:55:10;7.40;99.90
16578;DHT22;8401;52.528;13.340;2022-11-15T07:57:36;7.50;99.90
16578;DHT22;8401;52.528;13.340;2022-11-15T08:00:05;7.50;99.90
16578;DHT22;8401;52.528;13.340;2022-11-15T08:02:31;7.50;99.90
16578;DHT22;8401;52.528;13.340;2022-11-15T08:04:56;7.60;99.90
16578;DHT22;8401;52.528;13.340;2022-11-15T08:07:22;7.60;99.90
16578;DHT22;8401;52.528;13.340;2022-11-15T08:09:48;7.70;99.90
16578;DHT22;8401;52.528;13.340;2022-11-15T08:12:14;7.70;99.90
16578;DHT22;8401;52.528;13.340;2022-11-15T08:14:39;7.80;99.90
16578;DHT22;8401;52.528;13.340;2022-11-15T08:17:05;7.80;99.90
16578;DHT22;8401;52.528;13.340;2022-11-15T08:19:31;7.80;99.90
16578;DHT22;8401;52.528;13.340;2022-11-15T08:21:56;7.90;99.90
16578;DHT22;8401;52.528;13.340;2022-11-15T08:24:22;7.90;99.90
16578;DHT22;8401;52.528;13.340;2022-11-15T08:26:47;8.00;99.90
16578;DHT22;8401;52.528;13.340;2022-11-15T08:29:13;8.00;99.90
16578;DHT22;8401;52.528;13.340;2022-11-15T08:31:39;8.20;99.90
16578;DHT22;8401;52.528;13.340;2022-11-15T08:34:05;8.30;99.90
16578;DHT22;8401;52.528;13.340;2022-11-15T08:36:31;8.40;98.40
16578;DHT22;8401;52.528;13.340;2022-11-15T08:38:57;8.50;97.60
16578;DHT22;8401;52.528;13.340;2022-11-15T08:41:33;8.50;94.30
16578;DHT22;8401;52.528;13.340;2022-11-15T08:44:01;8.40;94.50
16578;DHT22;8401;52.528;13.340;2022-11-15T08:46:26;8.50;98.30
16578;DHT22;8401;52.528;13.340;2022-11-15T08:48:52;8.70;92.80
16578;DHT22;8401;52.528;13.340;2022-11-15T08:51:18;8.70;86.50
16578;DHT22;8401;52.528;13.340;2022-11-15T08:53:43;8.70;90.90
16578;DHT22;8401;52.528;13.340;2022-11-15T08:56:11;8.80;88.40
16578;DHT22;8401;52.528;13.340;2022-11-15T08:58:37;8.70;76.60
16578;DHT22;8401;52.528;13.340;2022-11-15T09:01:04;8.80;89.00
16578;DHT22;8401;52.528;13.340;2022-11-15T09:03:30;9.10;72.60
16578;DHT22;8401;52.528;13.340;2022-11-15T09:05:59;9.20;50.60
16578;DHT22;8401;52.528;13.340;2022-11-15T09:08:29;9.30;43.40
16578;DHT22;8401;52.528;13.340;2022-11-15T09:10:55;9.40;47.80
16578;DHT22;8401;52.528;13.340;2022-11-15T09:13:21;9.70;37.70
16578;DHT22;8401;52.528;13.340;2022-11-15T09:15:46;9.80;19.10
16578;DHT22;8401;52.528;13.340;2022-11-15T09:18:12;9.90;19.10
16578;DHT22;8401;52.528;13.340;2022-11-15T09:20:38;9.80;18.50
16578;DHT22;8401;52.528;13.340;2022-11-15T09:23:04;9.80;22.20
16578;DHT22;8401;52.528;13.340;2022-11-15T09:25:30;9.80;11.90
16578;DHT22;8401;52.528;13.340;2022-11-15T09:27:56;9.90;6.20
16578;DHT22;8401;52.528;13.340;2022-11-15T09:30:23;10.00;1.00
16578;DHT22;8401;52.528;13.340;2022-11-15T09:32:49;10.00;2.20
16578;DHT22;8401;52.528;13.340;2022-11-15T09:35:14;10.30;1.00
16578;DHT22;8401;52.528;13.340;2022-11-15T09:37:40;10.30;1.00
16578;DHT22;8401;52.528;13.340;2022-11-15T09:40:10;10.30;1.00
16578;DHT22;8401;52.528;13.340;2022-11-15T09:46:02;10.80;1.00
16578;DHT22;8401;52.528;13.340;2022-11-15T09:48:36;10.80;1.00
16578;DHT22;8401;52.528;13.340;2022-11-15T09:51:04;11.10;1.00
16578;DHT22;8401;52.528;13.340;2022-11-15T09:53:43;11.10;1.00
16578;DHT22;8401;52.528;13.340;2022-11-15T09:56:27;11.10;1.00
16578;DHT22;8401;52.528;13.340;2022-11-15T09:59:01;11.20;1.00
16578;DHT22;8401;52.528;13.340;2022-11-15T10:02:01;11.20;1.00
16578;DHT22;8401;52.528;13.340;2022-11-15T10:04:28;11.20;1.00
16578;DHT22;8401;52.528;13.340;2022-11-15T10:07:02;11.30;1.00
16578;DHT22;8401;52.528;13.340;2022-11-15T10:09:39;11.30;1.00
16578;DHT22;8401;52.528;13.340;2022-11-15T10:12:09;11.30;1.00
16578;DHT22;8401;52.528;13.340;2022-11-15T10:14:36;11.40;1.00
16578;DHT22;8401;52.528;13.340;2022-11-15T10:19:55;11.60;1.00
16578;DHT22;8401;52.528;13.340;2022-11-15T10:27:34;11.80;1.00
16578;DHT22;8401;52.528;13.340;2022-11-15T10:30:00;11.90;1.00
16578;DHT22;8401;52.528;13.340;2022-11-15T10:32:26;11.90;1.00
16578;DHT22;8401;52.528;13.340;2022-11-15T10:34:52;12.00;1.00
16578;DHT22;8401;52.528;13.340;2022-11-15T10:37:29;12.10;1.00
16578;DHT22;8401;52.528;13.340;2022-11-15T10:40:25;12.10;1.00
16578;DHT22;8401;52.528;13.340;2022-11-15T10:43:15;12.10;1.00
16578;DHT22;8401;52.528;13.340;2022-11-15T10:45:42;12.20;1.00
16578;DHT22;8401;52.528;13.340;2022-11-15T10:50:44;12.10;1.00
16578;DHT22;8401;52.528;13.340;2022-11-15T10:53:33;12.10;1.00
16578;DHT22;8401;52.528;13.340;2022-11-15T10:56:06;12.00;1.00
16578;DHT22;8401;52.528;13.340;2022-11-15T10:58:42;12.10;1.00
16578;DHT22;8401;52.528;13.340;2022-11-15T11:01:19;12.10;1.00
16578;DHT22;8401;52.528;13.340;2022-11-15T11:04:07;12.20;1.00
16578;DHT22;8401;52.528;13.340;2022-11-15T11:06:57;12.20;1.00
16578;DHT22;8401;52.528;13.340;2022-11-15T11:09:33;12.40;1.00
16578;DHT22;8401;52.528;13.340;2022-11-15T11:12:00;12.50;1.00
16578;DHT22;8401;52.528;13.340;2022-11-15T11:14:28;12.50;1.00
16578;DHT22;8401;52.528;13.340;2022-11-15T11:36:08;12.70;1.00
16578;DHT22;8401;52.528;13.340;2022-11-15T11:41:43;12.70;1.00
16578;DHT22;8401;52.528;13.340;2022-11-15T11:47:07;13.00;1.00
16578;DHT22;8401;52.528;13.340;2022-11-15T11:49:50;12.90;1.00
16578;DHT22;8401;52.528;13.340;2022-11-15T11:55:00;13.00;1.00
16578;DHT22;8401;52.528;13.340;2022-11-15T12:00:24;13.00;1.00
16578;DHT22;8401;52.528;13.340;2022-11-15T12:08:58;13.20;1.00
16578;DHT22;8401;52.528;13.340;2022-11-15T12:14:40;13.20;1.00
16578;DHT22;8401;52.528;13.340;2022-11-15T12:17:11;13.20;1.00
16578;DHT22;8401;52.528;13.340;2022-11-15T12:19:39;13.20;1.00
16578;DHT22;8401;52.528;13.340;2022-11-15T12:22:08;13.20;1.00
16578;DHT22;8401;52.528;13.340;2022-11-15T12:24:45;13.30;1.00
16578;DHT22;8401;52.528;13.340;2022-11-15T12:27:33;13.40;1.00
16578;DHT22;8401;52.528;13.340;2022-11-15T12:30:07;13.40;1.00
16578;DHT22;8401;52.528;13.340;2022-11-15T12:32:37;13.30;1.00
16578;DHT22;8401;52.528;13.340;2022-11-15T12:35:06;13.40;1.00
16578;DHT22;8401;52.528;13.340;2022-11-15T12:37:48;13.40;1.00
16578;DHT22;8401;52.528;13.340;2022-11-15T12:43:29;13.40;1.00
16578;DHT22;8401;52.528;13.340;2022-11-15T12:45:50;13.50;1.00
16578;DHT22;8401;52.528;13.340;2022-11-15T12:50:54;13.60;1.00
16578;DHT22;8401;52.528;13.340;2022-11-15T12:58:57;13.60;1.00
16578;DHT22;8401;52.528;13.340;2022-11-15T13:12:10;13.60;1.00
16578;DHT22;8401;52.528;13.340;2022-11-15T13:22:40;13.70;1.00
16578;DHT22;8401;52.528;13.340;2022-11-15T13:28:21;13.70;1.00
16578;DHT22;8401;52.528;13.340;2022-11-15T13:33:31;13.70;1.00
16578;DHT22;8401;52.528;13.340;2022-11-15T13:36:00;13.70;1.00
16578;DHT22;8401;52.528;13.340;2022-11-15T13:38:28;13.70;1.00
16578;DHT22;8401;52.528;13.340;2022-11-15T13:40:55;13.60;1.00
16578;DHT22;8401;52.528;13.340;2022-11-15T13:49:00;13.60;1.00
16578;DHT22;8401;52.528;13.340;2022-11-15T13:51:50;13.70;1.00
16578;DHT22;8401;52.528;13.340;2022-11-15T13:57:47;13.60;1.00
16578;DHT22;8401;52.528;13.340;2022-11-15T14:00:42;13.50;1.00
16578;DHT22;8401;52.528;13.340;2022-11-15T14:08:29;13.40;1.00
16578;DHT22;8401;52.528;13.340;2022-11-15T14:13:33;13.20;1.00
16578;DHT22;8401;52.528;13.340;2022-11-15T14:16:20;13.30;1.00
16578;DHT22;8401;52.528;13.340;2022-11-15T14:18:51;13.40;1.00
16578;DHT22;8401;52.528;13.340;2022-11-15T14:21:18;13.40;1.00
16578;DHT22;8401;52.528;13.340;2022-11-15T14:23:44;13.30;1.00
16578;DHT22;8401;52.528;13.340;2022-11-15T14:26:30;13.40;1.00
16578;DHT22;8401;52.528;13.340;2022-11-15T14:28:56;13.40;1.00
16578;DHT22;8401;52.528;13.340;2022-11-15T14:31:22;13.30;1.00
16578;DHT22;8401;52.528;13.340;2022-11-15T14:33:48;13.30;1.00
16578;DHT22;8401;52.528;13.340;2022-11-15T14:36:16;13.20;1.00
16578;DHT22;8401;52.528;13.340;2022-11-15T14:38:42;13.20;1.00
16578;DHT22;8401;52.528;13.340;2022-11-15T14:41:23;13.10;1.00
16578;DHT22;8401;52.528;13.340;2022-11-15T14:43:49;13.20;1.00
16578;DHT22;8401;52.528;13.340;2022-11-15T14:46:15;13.20;1.00
16578;DHT22;8401;52.528;13.340;2022-11-15T14:48:40;13.10;1.00
16578;DHT22;8401;52.528;13.340;2022-11-15T14:51:15;13.10;1.00
16578;DHT22;8401;52.528;13.340;2022-11-15T14:53:42;13.00;1.00
16578;DHT22;8401;52.528;13.340;2022-11-15T14:56:08;13.00;1.00
16578;DHT22;8401;52.528;13.340;2022-11-15T14:58:34;12.80;1.00
16578;DHT22;8401;52.528;13.340;2022-11-15T15:00:59;12.70;1.00
16578;DHT22;8401;52.528;13.340;2022-11-15T15:03:27;12.80;1.00
16578;DHT22;8401;52.528;13.340;2022-11-15T15:05:52;12.70;1.00
16578;DHT22;8401;52.528;13.340;2022-11-15T15:08:18;12.60;1.00
16578;DHT22;8401;52.528;13.340;2022-11-15T15:10:45;12.50;1.00
16578;DHT22;8401;52.528;13.340;2022-11-15T15:13:16;12.40;1.00
16578;DHT22;8401;52.528;13.340;2022-11-15T15:15:43;12.40;1.00
16578;DHT22;8401;52.528;13.340;2022-11-15T15:18:08;12.50;1.00
16578;DHT22;8401;52.528;13.340;2022-11-15T15:20:41;12.50;1.00
16578;DHT22;8401;52.528;13.340;2022-11-15T15:23:15;12.60;1.00
16578;DHT22;8401;52.528;13.340;2022-11-15T15:25:42;12.30;1.00
16578;DHT22;8401;52.528;13.340;2022-11-15T15:28:09;12.20;1.00
16578;DHT22;8401;52.528;13.340;2022-11-15T15:30:34;12.10;1.00
16578;DHT22;8401;52.528;13.340;2022-11-15T15:33:00;12.00;1.00
16578;DHT22;8401;52.528;13.340;2022-11-15T15:35:29;12.10;1.00
16578;DHT22;8401;52.528;13.340;2022-11-15T15:37:56;12.20;1.00
16578;DHT22;8401;52.528;13.340;2022-11-15T15:40:23;12.20;1.00
16578;DHT22;8401;52.528;13.340;2022-11-15T15:42:49;12.20;1.00
16578;DHT22;8401;52.528;13.340;2022-11-15T15:45:17;12.20;1.00
16578;DHT22;8401;52.528;13.340;2022-11-15T15:47:43;12.10;1.00
16578;DHT22;8401;52.528;13.340;2022-11-15T15:50:24;12.10;1.00
16578;DHT22;8401;52.528;13.340;2022-11-15T15:52:51;12.20;1.00
16578;DHT22;8401;52.528;13.340;2022-11-15T15:55:18;12.10;1.00
16578;DHT22;8401;52.528;13.340;2022-11-15T15:57:43;12.10;1.00
16578;DHT22;8401;52.528;13.340;2022-11-15T16:00:10;12.10;1.00
16578;DHT22;8401;52.528;13.340;2022-11-15T16:02:36;12.00;1.00
16578;DHT22;8401;52.528;13.340;2022-11-15T16:05:02;11.90;3.80
16578;DHT22;8401;52.528;13.340;2022-11-15T16:07:27;11.80;6.70
16578;DHT22;8401;52.528;13.340;2022-11-15T16:09:55;11.70;13.00
16578;DHT22;8401;52.528;13.340;2022-11-15T16:12:34;11.80;17.60
16578;DHT22;8401;52.528;13.340;2022-11-15T16:15:00;11.80;14.60
16578;DHT22;8401;52.528;13.340;2022-11-15T16:17:39;11.80;11.40
16578;DHT22;8401;52.528;13.340;2022-11-15T16:20:06;11.90;13.70
16578;DHT22;8401;52.528;13.340;2022-11-15T16:22:32;11.80;13.70
16578;DHT22;8401;52.528;13.340;2022-11-15T16:24:58;11.80;19.70
16578;DHT22;8401;52.528;13.340;2022-11-15T16:27:23;11.70;24.60
16578;DHT22;8401;52.528;13.340;2022-11-15T16:29:49;11.80;25.50
16578;DHT22;8401;52.528;13.340;2022-11-15T16:32:16;11.80;26.20
16578;DHT22;8401;52.528;13.340;2022-11-15T16:34:42;11.70;24.10
16578;DHT22;8401;52.528;13.340;2022-11-15T16:37:23;11.50;41.90
16578;DHT22;8401;52.528;13.340;2022-11-15T16:39:49;11.50;48.00
16578;DHT22;8401;52.528;13.340;2022-11-15T16:42:14;11.60;40.70
16578;DHT22;8401;52.528;13.340;2022-11-15T16:44:40;11.60;47.90
16578;DHT22;8401;52.528;13.340;2022-11-15T16:47:19;11.60;46.70
16578;DHT22;8401;52.528;13.340;2022-11-15T16:49:48;11.60;50.90
16578;DHT22;8401;52.528;13.340;2022-11-15T16:52:13;11.60;54.30
16578;DHT22;8401;52.528;13.340;2022-11-15T16:54:39;11.50;58.50
16578;DHT22;8401;52.528;13.340;2022-11-15T16:57:04;11.40;63.80
16578;DHT22;8401;52.528;13.340;2022-11-15T16:59:30;11.30;71.80
16578;DHT22;8401;52.528;13.340;2022-11-15T17:01:57;11.30;74.80
16578;DHT22;8401;52.528;13.340;2022-11-15T17:04:23;11.30;78.80
16578;DHT22;8401;52.528;13.340;2022-11-15T17:06:49;11.20;84.80
16578;DHT22;8401;52.528;13.340;2022-11-15T17:09:18;11.20;88.00
16578;DHT22;8401;52.528;13.340;2022-11-15T17:11:44;11.10;91.90
16578;DHT22;8401;52.528;13.340;2022-11-15T17:14:11;11.10;96.10
16578;DHT22;8401;52.528;13.340;2022-11-15T17:16:37;11.00;91.60
16578;DHT22;8401;52.528;13.340;2022-11-15T17:19:13;11.00;97.00
16578;DHT22;8401;52.528;13.340;2022-11-15T17:21:39;11.00;92.40
16578;DHT22;8401;52.528;13.340;2022-11-15T17:24:05;11.00;90.60
16578;DHT22;8401;52.528;13.340;2022-11-15T17:26:31;10.90;90.00
16578;DHT22;8401;52.528;13.340;2022-11-15T17:28:57;10.70;93.40
16578;DHT22;8401;52.528;13.340;2022-11-15T17:31:25;10.70;97.90
16578;DHT22;8401;52.528;13.340;2022-11-15T17:33:51;10.60;99.90
16578;DHT22;8401;52.528;13.340;2022-11-15T17:36:17;10.60;99.90
16578;DHT22;8401;52.528;13.340;2022-11-15T17:38:42;10.70;99.90
16578;DHT22;8401;52.528;13.340;2022-11-15T17:41:13;10.60;99.90
16578;DHT22;8401;52.528;13.340;2022-11-15T17:43:39;10.50;99.90
16578;DHT22;8401;52.528;13.340;2022-11-15T17:46:10;10.50;99.90
16578;DHT22;8401;52.528;13.340;2022-11-15T17:48:36;10.30;99.90
16578;DHT22;8401;52.528;13.340;2022-11-15T17:51:04;10.10;99.90
16578;DHT22;8401;52.528;13.340;2022-11-15T17:53:35;10.20;99.90
16578;DHT22;8401;52.528;13.340;2022-11-15T17:56:13;10.20;99.90
16578;DHT22;8401;52.528;13.340;2022-11-15T17:58:39;10.20;99.90
16578;DHT22;8401;52.528;13.340;2022-11-15T18:01:20;10.10;99.90
16578;DHT22;8401;52.528;13.340;2022-11-15T18:03:46;10.30;99.90
16578;DHT22;8401;52.528;13.340;2022-11-15T18:06:12;10.20;99.90
16578;DHT22;8401;52.528;13.340;2022-11-15T18:08:39;10.20;99.90
16578;DHT22;8401;52.528;13.340;2022-11-15T18:11:17;10.20;99.90
16578;DHT22;8401;52.528;13.340;2022-11-15T18:13:45;10.10;99.90
16578;DHT22;8401;52.528;13.340;2022-11-15T18:16:15;10.10;99.90
16578;DHT22;8401;52.528;13.340;2022-11-15T18:18:42;9.80;99.90